createdAt,value
2018-05-04T00:01:41.371Z,35.80
2018-05-04T00:04:09.764Z,35.80
2018-05-04T00:06:37.979Z,35.80
2018-05-04T00:09:07.134Z,35.90
2018-05-04T00:11:35.462Z,35.80
2018-05-04T00:14:03.970Z,35.90
2018-05-04T00:16:32.255Z,35.90
2018-05-04T00:19:00.719Z,35.80
2018-05-04T00:21:29.702Z,35.90
2018-05-04T00:23:58.703Z,36.00
2018-05-04T00:26:27.683Z,36.00
2018-05-04T00:28:56.691Z,36.00
2018-05-04T00:31:25.667Z,36.00
2018-05-04T00:33:54.070Z,36.00
2018-05-04T00:36:22.454Z,36.10
2018-05-04T00:38:50.755Z,36.10
2018-05-04T00:41:19.121Z,36.10
2018-05-04T00:43:47.507Z,36.00
2018-05-04T00:46:15.831Z,36.00
2018-05-04T00:48:44.343Z,36.10
2018-05-04T00:51:12.731Z,36.10
2018-05-04T00:53:52.631Z,36.10
2018-05-04T00:56:20.848Z,36.10
2018-05-04T00:58:49.115Z,36.20
2018-05-04T01:01:17.471Z,36.20
2018-05-04T01:03:45.711Z,36.20
2018-05-04T01:06:13.930Z,36.20
2018-05-04T01:08:42.350Z,36.20
2018-05-04T01:11:10.654Z,36.10
2018-05-04T01:13:38.891Z,36.20
2018-05-04T01:16:07.107Z,36.20
2018-05-04T01:18:35.523Z,36.20
2018-05-04T01:21:03.914Z,36.20
2018-05-04T01:23:32.391Z,36.20
2018-05-04T01:26:00.635Z,36.20
2018-05-04T01:28:28.851Z,36.20
2018-05-04T01:30:57.111Z,36.20
2018-05-04T01:33:25.330Z,36.20
2018-05-04T01:35:53.567Z,36.30
2018-05-04T01:38:21.957Z,36.30
2018-05-04T01:40:50.350Z,36.30
2018-05-04T01:43:18.571Z,36.30
2018-05-04T01:45:46.806Z,36.20
2018-05-04T01:48:15.019Z,36.20
2018-05-04T01:50:43.259Z,36.20
2018-05-04T01:53:11.571Z,36.20
2018-05-04T01:55:39.815Z,36.30
2018-05-04T01:58:08.035Z,36.30
2018-05-04T02:00:36.274Z,36.30
2018-05-04T02:03:04.506Z,36.40
2018-05-04T02:05:32.874Z,36.40
2018-05-04T02:08:01.231Z,36.40
2018-05-04T02:10:29.630Z,36.30
2018-05-04T02:12:57.842Z,36.20
2018-05-04T02:15:26.143Z,36.20
2018-05-04T02:17:54.571Z,36.20
2018-05-04T02:20:22.835Z,36.20
2018-05-04T02:22:51.050Z,36.20
2018-05-04T02:25:19.294Z,36.80
2018-05-04T02:27:47.643Z,36.20
2018-05-04T02:30:15.987Z,36.80
2018-05-04T02:32:44.202Z,36.20
2018-05-04T02:35:13.206Z,36.20
2018-05-04T02:37:42.190Z,36.20
2018-05-04T02:40:11.190Z,36.20
2018-05-04T02:42:40.174Z,36.20
2018-05-04T02:45:08.882Z,36.20
2018-05-04T02:47:37.128Z,36.20
2018-05-04T02:50:05.367Z,36.20
2018-05-04T02:52:33.598Z,36.20
2018-05-04T02:55:02.095Z,36.20
2018-05-04T02:57:30.307Z,36.20
2018-05-04T02:59:58.523Z,36.20
2018-05-04T03:02:27.534Z,36.20
2018-05-04T03:04:55.845Z,36.80
2018-05-04T03:07:24.210Z,36.20
2018-05-04T03:09:52.538Z,36.20
2018-05-04T03:12:20.779Z,36.30
2018-05-04T03:14:49.019Z,36.20
2018-05-04T03:17:18.083Z,36.30
2018-05-04T03:19:46.489Z,36.30
2018-05-04T03:22:14.867Z,36.80
2018-05-04T03:24:43.147Z,36.30
2018-05-04T03:27:11.622Z,36.30
2018-05-04T03:29:39.902Z,36.30
2018-05-04T03:32:08.226Z,36.30
2018-05-04T03:34:36.450Z,36.30
2018-05-04T03:37:04.831Z,36.30
2018-05-04T03:39:33.209Z,36.30
2018-05-04T03:42:01.551Z,36.30
2018-05-04T03:44:29.768Z,36.40
2018-05-04T03:46:58.006Z,36.40
2018-05-04T03:49:26.318Z,36.30
2018-05-04T03:51:54.719Z,36.20
2018-05-04T03:54:23.071Z,36.30
2018-05-04T03:56:51.483Z,36.30
2018-05-04T03:59:31.594Z,36.30
2018-05-04T04:02:12.379Z,36.40
2018-05-04T04:04:40.823Z,36.40
2018-05-04T04:07:09.038Z,36.30
2018-05-04T04:09:37.404Z,36.30
2018-05-04T04:12:05.723Z,36.30
2018-05-04T04:14:33.963Z,36.30
2018-05-04T04:17:02.179Z,36.30
2018-05-04T04:19:30.471Z,36.30
2018-05-04T04:21:58.858Z,36.30
2018-05-04T04:24:27.103Z,36.30
2018-05-04T04:26:55.438Z,36.30
2018-05-04T04:29:23.740Z,36.30
2018-05-04T04:31:51.956Z,36.30
2018-05-04T04:34:20.266Z,36.40
2018-05-04T04:36:48.512Z,36.40
2018-05-04T04:39:16.924Z,36.40
2018-05-04T04:41:45.134Z,36.40
2018-05-04T04:44:13.475Z,36.30
2018-05-04T04:46:41.727Z,36.30
2018-05-04T04:49:09.966Z,36.30
2018-05-04T04:51:38.181Z,36.40
2018-05-04T04:54:06.688Z,36.40
2018-05-04T04:56:35.030Z,36.40
2018-05-04T04:59:03.269Z,36.30
2018-05-04T05:01:31.488Z,36.30
2018-05-04T05:04:00.506Z,36.40
2018-05-04T05:06:28.756Z,36.30
2018-05-04T05:08:57.015Z,36.40
2018-05-04T05:11:25.331Z,36.40
2018-05-04T05:13:53.611Z,36.30
2018-05-04T05:16:22.011Z,36.40
2018-05-04T05:18:50.478Z,36.30
2018-05-04T05:21:18.734Z,36.30
2018-05-04T05:23:47.233Z,36.40
2018-05-04T05:26:15.494Z,36.40
2018-05-04T05:28:43.803Z,36.40
2018-05-04T05:31:12.054Z,36.40
2018-05-04T05:33:40.337Z,36.50
2018-05-04T05:36:08.698Z,36.40
2018-05-04T05:38:37.194Z,36.40
2018-05-04T05:41:05.486Z,36.40
2018-05-04T05:43:33.942Z,36.40
2018-05-04T05:46:02.318Z,36.40
2018-05-04T05:48:30.576Z,36.40
2018-05-04T05:50:59.303Z,36.50
2018-05-04T05:53:27.670Z,36.00
2018-05-04T05:55:55.910Z,34.80
2018-05-04T05:58:24.141Z,35.60
2018-05-04T06:00:52.382Z,36.00
2018-05-04T06:03:20.603Z,35.90
2018-05-04T06:05:48.949Z,36.30
2018-05-04T06:08:17.431Z,37.00
2018-05-04T06:10:45.647Z,36.90
2018-05-04T06:13:14.719Z,37.20
2018-05-04T06:15:42.947Z,37.20
2018-05-04T06:18:11.199Z,37.50
2018-05-04T06:20:39.523Z,37.80
2018-05-04T06:23:08.312Z,38.30
2018-05-04T06:25:36.544Z,37.80
2018-05-04T06:28:04.790Z,38.50
2018-05-04T06:30:33.038Z,38.40
2018-05-04T06:33:01.292Z,37.30
2018-05-04T06:35:29.591Z,37.50
2018-05-04T06:37:57.850Z,37.50
2018-05-04T06:40:26.342Z,37.60
2018-05-04T06:42:54.627Z,37.40
2018-05-04T06:45:23.060Z,38.20
2018-05-04T06:47:51.272Z,37.60
2018-05-04T06:50:19.502Z,38.10
2018-05-04T06:52:47.931Z,38.00
2018-05-04T06:55:16.145Z,38.30
2018-05-04T06:57:45.228Z,38.70
2018-05-04T07:00:13.679Z,38.50
2018-05-04T07:02:42.101Z,39.00
2018-05-04T07:05:10.344Z,39.10
2018-05-04T07:07:38.595Z,39.20
2018-05-04T07:10:06.886Z,39.60
2018-05-04T07:12:35.125Z,39.40
2018-05-04T07:15:03.372Z,39.60
2018-05-04T07:17:31.622Z,40.40
2018-05-04T07:20:00.090Z,39.70
2018-05-04T07:22:28.311Z,40.20
2018-05-04T07:24:56.846Z,40.00
2018-05-04T07:27:25.080Z,40.90
2018-05-04T07:29:53.326Z,40.20
2018-05-04T07:32:21.557Z,39.00
2018-05-04T07:34:49.803Z,38.90
2018-05-04T07:37:18.030Z,39.10
2018-05-04T07:39:46.507Z,39.30
2018-05-04T07:42:14.879Z,38.80
2018-05-04T07:44:43.182Z,38.60
2018-05-04T07:47:12.394Z,38.80
2018-05-04T07:49:40.637Z,38.20
2018-05-04T07:52:08.872Z,38.60
2018-05-04T07:57:24.264Z,38.60
2018-05-04T07:59:53.282Z,38.30
2018-05-04T08:02:21.514Z,38.30
2018-05-04T08:04:49.770Z,38.30
2018-05-04T08:07:18.874Z,38.70
2018-05-04T08:09:47.194Z,39.20
2018-05-04T08:12:15.603Z,39.30
2018-05-04T08:14:43.867Z,39.30
2018-05-04T08:17:12.093Z,39.90
2018-05-04T08:19:40.355Z,39.40
2018-05-04T08:22:08.587Z,39.60
2018-05-04T08:24:36.863Z,39.80
2018-05-04T08:27:05.098Z,39.30
2018-05-04T08:29:33.523Z,39.50
2018-05-04T08:32:01.875Z,39.10
2018-05-04T08:34:30.363Z,39.10
2018-05-04T08:36:59.539Z,39.60
2018-05-04T08:39:27.791Z,39.60
2018-05-04T08:41:56.026Z,39.60
2018-05-04T08:44:24.282Z,39.50
2018-05-04T08:46:52.547Z,39.10
2018-05-04T08:49:20.786Z,39.50
2018-05-04T08:51:49.017Z,39.70
2018-05-04T08:54:17.366Z,39.30
2018-05-04T08:56:45.694Z,39.10
2018-05-04T08:59:14.167Z,39.10
2018-05-04T09:01:42.467Z,38.80
2018-05-04T09:04:10.799Z,39.10
2018-05-04T09:06:39.294Z,38.90
2018-05-04T09:09:07.546Z,39.40
2018-05-04T09:11:35.807Z,39.50
2018-05-04T09:14:04.039Z,39.70
2018-05-04T09:16:32.387Z,39.80
2018-05-04T09:19:00.927Z,39.40
2018-05-04T09:24:32.661Z,39.70
2018-05-04T09:27:00.967Z,40.00
2018-05-04T09:29:29.294Z,40.30
2018-05-04T09:31:57.550Z,39.40
2018-05-04T09:34:25.867Z,39.60
2018-05-04T09:36:54.242Z,40.10
2018-05-04T09:39:22.697Z,38.90
2018-05-04T09:41:50.923Z,39.10
2018-05-04T09:44:19.242Z,38.10
2018-05-04T09:46:47.520Z,37.70
2018-05-04T09:49:15.755Z,37.60
2018-05-04T09:51:44.004Z,37.50
2018-05-04T09:54:12.233Z,37.30
2018-05-04T09:56:40.651Z,37.00
2018-05-04T09:59:08.899Z,37.20
2018-05-04T10:01:37.537Z,37.00
2018-05-04T10:04:05.755Z,33.80
2018-05-04T10:06:34.756Z,32.50
2018-05-04T10:09:03.793Z,33.00
2018-05-04T10:11:32.239Z,32.80
2018-05-04T10:14:00.550Z,32.40
2018-05-04T10:16:28.762Z,30.90
2018-05-04T10:18:57.102Z,31.50
2018-05-04T10:21:25.435Z,31.50
2018-05-04T10:23:53.831Z,32.10
2018-05-04T10:26:22.326Z,32.20
2018-05-04T10:28:50.967Z,32.10
2018-05-04T10:31:20.006Z,31.50
2018-05-04T10:36:23.619Z,31.60
2018-05-04T10:38:54.896Z,32.20
2018-05-04T10:41:23.202Z,31.50
2018-05-04T10:43:51.446Z,31.80
2018-05-04T10:46:26.810Z,31.70
2018-05-04T10:48:55.393Z,31.60
2018-05-04T10:51:23.887Z,32.20
2018-05-04T10:53:56.893Z,32.00
2018-05-04T10:56:26.103Z,32.20
2018-05-04T10:58:54.741Z,33.20
2018-05-04T11:01:22.951Z,32.80
2018-05-04T11:03:51.498Z,32.50
2018-05-04T11:06:19.876Z,33.80
2018-05-04T11:08:48.393Z,33.10
2018-05-04T11:11:16.798Z,32.90
2018-05-04T11:13:45.119Z,33.70
2018-05-04T11:16:14.118Z,32.20
2018-05-04T11:18:43.134Z,32.70
2018-05-04T11:21:11.374Z,32.60
2018-05-04T11:23:39.785Z,33.00
2018-05-04T11:26:08.015Z,33.00
2018-05-04T11:28:36.271Z,32.30
2018-05-04T11:31:04.503Z,31.80
2018-05-04T11:33:32.956Z,32.80
2018-05-04T11:36:01.166Z,33.50
2018-05-04T11:38:29.454Z,33.00
2018-05-04T11:40:57.923Z,32.90
2018-05-04T11:43:26.287Z,33.40
2018-05-04T11:45:55.607Z,32.70
2018-05-04T11:48:23.858Z,32.70
2018-05-04T11:50:52.449Z,32.50
2018-05-04T11:53:20.643Z,31.90
2018-05-04T11:55:49.731Z,32.20
2018-05-04T11:58:18.006Z,32.10
2018-05-04T12:00:46.503Z,32.10
2018-05-04T12:03:14.767Z,32.20
2018-05-04T12:05:43.026Z,33.80
2018-05-04T12:08:11.251Z,32.60
2018-05-04T12:10:39.587Z,32.60
2018-05-04T12:13:07.811Z,32.10
2018-05-04T12:15:36.062Z,31.70
2018-05-04T12:18:04.287Z,33.20
2018-05-04T12:20:32.538Z,32.00
2018-05-04T12:23:00.772Z,31.50
2018-05-04T12:25:29.036Z,34.00
2018-05-04T12:27:57.487Z,32.40
2018-05-04T12:30:25.718Z,32.60
2018-05-04T12:32:54.079Z,33.00
2018-05-04T12:35:22.485Z,32.20
2018-05-04T12:37:50.842Z,32.00
2018-05-04T12:40:19.067Z,32.00
2018-05-04T12:42:47.314Z,32.10
2018-05-04T12:45:15.750Z,32.30
2018-05-04T12:47:44.063Z,32.40
2018-05-04T12:50:12.291Z,33.00
2018-05-04T12:52:40.544Z,32.10
2018-05-04T12:55:08.767Z,32.00
2018-05-04T12:57:37.019Z,33.40
2018-05-04T13:00:06.117Z,32.10
2018-05-04T13:02:34.406Z,32.10
2018-05-04T13:05:02.779Z,30.80
2018-05-04T13:07:31.023Z,29.60
2018-05-04T13:09:59.406Z,29.50
2018-05-04T13:12:27.915Z,29.00
2018-05-04T13:14:56.175Z,29.00
2018-05-04T13:17:24.696Z,29.80
2018-05-04T13:19:52.927Z,30.70
2018-05-04T13:22:25.996Z,31.00
2018-05-04T13:24:54.326Z,31.20
2018-05-04T13:27:25.186Z,31.50
2018-05-04T13:29:56.359Z,32.10
2018-05-04T13:32:24.583Z,30.80
2018-05-04T13:34:52.811Z,31.20
2018-05-04T13:37:21.327Z,31.20
2018-05-04T13:39:49.555Z,30.50
2018-05-04T13:42:17.799Z,30.90
2018-05-04T13:44:46.031Z,30.60
2018-05-04T13:47:14.283Z,29.80
2018-05-04T13:49:42.511Z,30.00
2018-05-04T13:52:10.774Z,30.00
2018-05-04T13:54:38.994Z,30.30
2018-05-04T13:57:07.276Z,30.00
2018-05-04T13:59:35.802Z,30.70
2018-05-04T14:02:04.086Z,30.10
2018-05-04T14:04:32.725Z,29.90
2018-05-04T14:07:00.915Z,30.00
2018-05-04T14:09:29.926Z,29.90
2018-05-04T14:11:58.157Z,29.80
2018-05-04T14:14:26.570Z,29.60
2018-05-04T14:16:55.170Z,29.80
2018-05-04T14:19:24.223Z,30.00
2018-05-04T14:21:52.419Z,29.40
2018-05-04T14:24:21.422Z,29.40
2018-05-04T14:26:49.707Z,29.40
2018-05-04T14:29:18.110Z,29.70
2018-05-04T14:31:46.331Z,29.80
2018-05-04T14:34:14.571Z,29.90
2018-05-04T14:36:42.868Z,29.30
2018-05-04T14:39:11.107Z,29.40
2018-05-04T14:41:39.336Z,29.50
2018-05-04T14:44:07.582Z,29.00
2018-05-04T14:46:35.811Z,29.40
2018-05-04T14:49:04.062Z,30.60
2018-05-04T14:51:32.361Z,29.80
2018-05-04T14:54:00.535Z,29.20
2018-05-04T14:56:28.763Z,29.90
2018-05-04T14:58:57.007Z,29.70
2018-05-04T15:01:25.264Z,29.60
2018-05-04T15:03:53.493Z,30.00
2018-05-04T15:06:21.914Z,29.30
2018-05-04T15:08:50.127Z,30.00
2018-05-04T15:11:18.367Z,29.70
2018-05-04T15:13:46.599Z,30.40
2018-05-04T15:16:14.845Z,30.20
2018-05-04T15:18:43.078Z,30.20
2018-05-04T15:21:11.363Z,29.40
2018-05-04T15:23:39.817Z,28.90
2018-05-04T15:26:08.039Z,28.20
2018-05-04T15:28:36.351Z,28.50
2018-05-04T15:31:05.551Z,29.50
2018-05-04T15:33:33.779Z,28.70
2018-05-04T15:36:02.148Z,28.70
2018-05-04T15:38:30.363Z,28.60
2018-05-04T15:40:58.695Z,28.10
2018-05-04T15:43:26.946Z,28.50
2018-05-04T15:45:55.237Z,28.00
2018-05-04T15:48:28.991Z,28.50
2018-05-04T15:51:03.122Z,28.00
2018-05-04T15:53:31.339Z,28.00
2018-05-04T15:55:59.600Z,28.60
2018-05-04T15:58:27.823Z,28.70
2018-05-04T16:00:56.058Z,28.40
2018-05-04T16:03:24.410Z,27.80
2018-05-04T16:05:52.803Z,28.20
2018-05-04T16:08:21.023Z,28.60
2018-05-04T16:10:49.259Z,28.70
2018-05-04T16:13:17.475Z,29.60
2018-05-04T16:15:45.715Z,28.90
2018-05-04T16:18:13.955Z,28.90
2018-05-04T16:20:43.087Z,29.10
2018-05-04T16:23:11.330Z,29.00
2018-05-04T16:25:39.548Z,28.90
2018-05-04T16:28:07.788Z,29.40
2018-05-04T16:30:36.006Z,29.20
2018-05-04T16:33:04.320Z,29.50
2018-05-04T16:35:32.502Z,29.90
2018-05-04T17:59:58.591Z,29.20
2018-05-04T18:02:26.930Z,31.20
2018-05-04T18:04:55.271Z,31.40
2018-05-04T18:07:23.587Z,31.50
2018-05-04T18:09:51.826Z,31.50
2018-05-04T18:12:20.075Z,31.50
2018-05-04T18:14:48.315Z,31.50
2018-05-04T18:17:16.548Z,31.60
2018-05-04T18:19:44.927Z,31.60
2018-05-04T18:22:13.141Z,31.70
2018-05-04T18:24:41.382Z,31.80
2018-05-04T18:27:09.736Z,31.90
2018-05-04T18:29:37.975Z,32.00
2018-05-04T18:32:06.191Z,32.10
2018-05-04T18:34:34.663Z,32.10
2018-05-04T18:37:02.942Z,32.20
2018-05-04T18:39:31.182Z,32.40
2018-05-04T18:41:59.491Z,32.40
2018-05-04T18:44:27.874Z,32.50
2018-05-04T18:46:56.111Z,32.50
2018-05-04T18:49:24.634Z,32.50
2018-05-04T18:51:52.955Z,32.60
2018-05-04T18:54:21.225Z,32.60
2018-05-04T18:56:49.455Z,32.70
2018-05-04T18:59:17.766Z,32.90
2018-05-04T19:01:46.219Z,32.90
2018-05-04T19:04:14.526Z,33.00
2018-05-04T19:06:42.772Z,33.00
2018-05-04T19:09:11.038Z,33.00
2018-05-04T19:11:39.418Z,33.00
2018-05-04T19:14:07.776Z,33.20
2018-05-04T19:16:36.781Z,33.30
2018-05-04T19:19:05.783Z,33.30
2018-05-04T19:21:34.050Z,33.30
2018-05-04T19:24:03.776Z,33.40
2018-05-04T19:26:32.015Z,33.40
2018-05-04T19:29:00.231Z,33.40
2018-05-04T19:31:28.595Z,33.60
2018-05-04T19:33:56.878Z,33.60
2018-05-04T19:36:25.240Z,33.60
2018-05-04T19:38:53.464Z,33.70
2018-05-04T19:41:21.707Z,33.80
2018-05-04T19:43:50.056Z,33.70
2018-05-04T19:46:18.559Z,33.70
2018-05-04T19:48:46.775Z,33.80
2018-05-04T19:51:14.992Z,33.90
2018-05-04T19:53:43.998Z,34.00
2018-05-04T19:56:12.287Z,34.00
2018-05-04T19:58:40.731Z,34.00
2018-05-04T20:01:09.118Z,34.00
2018-05-04T20:03:38.123Z,34.20
2018-05-04T20:06:07.108Z,34.10
2018-05-04T20:08:36.118Z,34.20
2018-05-04T20:11:04.431Z,34.10
2018-05-04T20:13:32.671Z,34.20
2018-05-04T20:16:00.887Z,34.30
2018-05-04T20:18:29.210Z,34.20
2018-05-04T20:20:57.565Z,34.30
2018-05-04T20:23:25.811Z,34.30
2018-05-04T20:25:54.023Z,34.30
2018-05-04T20:28:22.269Z,34.30
2018-05-04T20:30:50.604Z,34.30
2018-05-04T20:33:18.846Z,34.30
2018-05-04T20:35:47.222Z,34.40
2018-05-04T20:38:15.458Z,34.50
2018-05-04T20:40:43.711Z,34.40
2018-05-04T20:43:12.105Z,34.50
2018-05-04T20:45:40.450Z,34.50
2018-05-04T20:48:08.831Z,35.20
2018-05-04T20:50:37.047Z,34.50
2018-05-04T20:53:05.314Z,34.60
2018-05-04T20:55:33.534Z,34.60
2018-05-04T20:58:01.801Z,34.70
2018-05-04T21:00:30.127Z,34.70
2018-05-04T21:02:58.611Z,34.70
2018-05-04T21:05:26.959Z,34.70
2018-05-04T21:07:55.947Z,34.80
2018-05-04T21:10:24.240Z,34.80
2018-05-04T21:12:52.591Z,34.80
2018-05-04T21:15:21.000Z,34.70
2018-05-04T21:17:49.482Z,34.80
2018-05-04T21:20:17.863Z,34.70
2018-05-04T21:22:46.106Z,34.80
2018-05-04T21:25:14.346Z,34.90
2018-05-04T21:27:42.594Z,34.90
2018-05-04T21:30:10.839Z,35.00
2018-05-04T21:32:39.050Z,35.00
2018-05-04T21:35:07.292Z,35.00
2018-05-04T21:37:35.511Z,35.00
2018-05-04T21:40:03.755Z,35.00
2018-05-04T21:42:31.970Z,35.00
2018-05-04T21:45:00.342Z,35.00
2018-05-04T21:47:28.804Z,35.00
2018-05-04T21:49:57.063Z,35.00
2018-05-04T21:52:25.454Z,35.00
2018-05-04T21:54:53.931Z,35.10
2018-05-04T21:57:22.180Z,35.10
2018-05-04T21:59:50.575Z,35.10
2018-05-04T22:02:18.975Z,35.10
2018-05-04T22:04:47.391Z,35.20
2018-05-04T22:07:15.587Z,35.30
2018-05-04T22:09:43.822Z,35.20
2018-05-04T22:12:12.039Z,35.30
2018-05-04T22:14:40.275Z,35.20
2018-05-04T22:17:08.567Z,35.30
2018-05-04T22:19:36.966Z,35.20
2018-05-04T22:22:05.202Z,35.20
2018-05-04T22:24:33.539Z,35.20
2018-05-04T22:27:02.850Z,35.30
2018-05-04T22:29:31.098Z,35.30
2018-05-04T22:31:59.340Z,35.30
2018-05-04T22:34:27.559Z,35.40
2018-05-04T22:36:55.875Z,35.40
2018-05-04T22:39:24.096Z,35.40
2018-05-04T22:41:52.430Z,35.40
2018-05-04T22:44:20.647Z,35.40
2018-05-04T22:46:48.954Z,35.50
2018-05-04T22:49:17.206Z,35.50
2018-05-04T22:51:45.454Z,35.50
2018-05-04T22:54:13.791Z,35.60
2018-05-04T22:56:42.091Z,35.50
2018-05-04T22:59:10.411Z,35.50
2018-05-04T23:01:38.754Z,35.50
2018-05-04T23:04:06.975Z,35.50
2018-05-04T23:06:35.978Z,35.70
2018-05-04T23:09:04.981Z,35.70
2018-05-04T23:11:33.975Z,35.60
2018-05-04T23:14:02.199Z,35.60
2018-05-04T23:16:30.618Z,35.60
2018-05-04T23:18:59.006Z,35.60
2018-05-04T23:21:27.386Z,35.60
2018-05-04T23:23:55.631Z,36.20
2018-05-04T23:26:23.847Z,35.60
2018-05-04T23:28:52.238Z,35.60
2018-05-04T23:31:20.596Z,35.70
2018-05-04T23:33:49.070Z,35.70
2018-05-04T23:36:17.287Z,35.70
2018-05-04T23:38:45.527Z,35.70
2018-05-04T23:41:13.898Z,35.80
2018-05-04T23:43:42.275Z,35.70
2018-05-04T23:46:10.591Z,35.80
2018-05-04T23:48:38.924Z,35.70
2018-05-04T23:51:07.146Z,35.70
2018-05-04T23:53:35.383Z,35.70
2018-05-04T23:56:03.598Z,35.80
2018-05-04T23:58:31.843Z,35.80
